METAR AND TAF INFORMATION
METAR FOR EGKK
ADDS - METARS form results

(1801 UTC 18 July 2018)
Data provider http://aviationweather.gov/adds/metars/
 
METAR text: EGKK 181750Z 22004KT 170V260 CAVOK 23/11 Q1018
Conditions at: EGKK (LONDON/GATWICK A, GB) observed 1750 UTC 18 July 2018
Temperature: 23.0°C (73°F)
Dewpoint: 11.0°C (52°F) [RH = 47%]
Pressure (altimeter): 30.06 inches Hg (1018.0 mb)
Winds: from the SW (220 degrees) at 5 MPH (4 knots; 2.1 m/s)
Visibility: 6 or more miles (10+ km)
Ceiling: ceiling and visibility are OK
Clouds: unknown
Weather: no significant weather observed at this time

METAR text: EGKK 181720Z 25006KT 220V290 CAVOK 23/12 Q1018
Conditions at: EGKK (LONDON/GATWICK A, GB) observed 1720 UTC 18 July 2018
Temperature: 23.0°C (73°F)
Dewpoint: 12.0°C (54°F) [RH = 50%]
Pressure (altimeter): 30.06 inches Hg (1018.0 mb)
Winds: from the WSW (250 degrees) at 7 MPH (6 knots; 3.1 m/s)
Visibility: 6 or more miles (10+ km)
Ceiling: ceiling and visibility are OK
Clouds: unknown
Weather: no significant weather observed at this time

Forecast for: EGKK (LONDON/GATWICK A, GB)
Text: TAF EGKK 181654Z 1818/1924 VRB04KT 9999 SCT040
Forecast period: 1800 UTC 18 July 2018 to 0000 UTC 20 July 2018
Forecast type: FROM: standard forecast or significant change
Winds: variable direction winds at 5 MPH (4 knots; 2.1 m/s)
Visibility: 6 or more miles (10+ km)
Clouds: scattered clouds at 4000 feet AGL
Weather: no significant weather forecast for this period
Text: PROB30 1902/1907 8000
Forecast period: 0200 to 0700 UTC 19 July 2018
Forecast type: PROBABLE: 30 percent likelihood of the following during this time
Visibility: 5 miles (8 km)
Weather: no significant weather forecast for this period

 AIRPORT MAP

 RUNWAY INFORMATION
Runway 08L Runway length 8415 ft Runway width 148 ft
Runway elevation 195 ft Runway displaced threshold 1053 ft Runway heading 78
Runway 26R Runway length 8415 ft Runway width 148 ft
Runway elevation 195 ft Runway displaced threshold 1366 ft Runway heading 258
Runway 08R Runway length 10364 ft Runway width 148 ft
Runway elevation 196 ft Runway displaced threshold 1288 ft Runway heading 78
Runway 26L Runway length 10364 ft Runway width 148 ft
Runway elevation 196 ft Runway displaced threshold 878 ft Runway heading 258

 AIRPORT FREQUENCIES
Type APP Name APP Frequency 126.825 MHZ
Type ATIS Name ATIS Frequency 136.525 MHZ
Type CLD Name CLNC DEL Frequency 121.95 MHZ
Type GND Name GND Frequency 121.8 MHZ
Type TWR Name TWR Frequency 124.225 MHZ

 AIRPORT NEAR NAVIGATION AIDS
Type NDB Name Gatwick Frequency 338 KHZ
Type NDB Name Gatwick Frequency 365 KHZ



Powered by Virtual Airlines Manager [v2.6.2]